Time;durP1;ratioP1;P1;durP2;ratioP2;P2;SDS_P1;SDS_P2;PMS_P1;PMS_P2;Temp;Humidity;BMP_temperature;BMP_pressure;BME280_temperature;BME280_humidity;BME280_pressure;Samples;Min_cycle;Max_cycle;Signal;HPM_P1;HPM_P2
2023/05/13 00:01:15;;;;;;;6.20;2.10;;;;;;;16.94;33.20;101198.98;108175;1280;22011;-58
2023/05/13 00:03:41;;;;;;;6.10;2.00;;;;;;;16.92;33.29;101201.16;108113;1287;21988;-58
2023/05/13 00:06:07;;;;;;;5.30;2.00;;;;;;;16.90;33.32;101198.38;108208;1287;21987;-59
2023/05/13 00:08:33;;;;;;;4.80;2.30;;;;;;;16.88;33.50;101198.06;108153;1286;21995;-57
2023/05/13 00:10:59;;;;;;;5.60;2.00;;;;;;;16.84;33.29;101201.38;108164;1287;21995;-59
2023/05/13 00:13:25;;;;;;;8.90;2.00;;;;;;;16.80;33.35;101201.96;108113;1287;22029;-59
2023/05/13 00:15:51;;;;;;;4.40;1.80;;;;;;;16.79;33.47;101204.15;108072;1287;21987;-59
2023/05/13 00:18:17;;;;;;;4.80;1.90;;;;;;;16.76;33.54;101203.16;108068;1287;21998;-58
2023/05/13 00:20:43;;;;;;;5.90;2.20;;;;;;;16.71;33.52;101206.11;107357;1284;1003075;-59
2023/05/13 00:23:10;;;;;;;6.10;1.90;;;;;;;16.69;33.65;101209.17;108132;1287;21987;-58
2023/05/13 00:25:36;;;;;;;5.80;2.10;;;;;;;16.66;33.69;101211.02;108073;1287;21990;-59
2023/05/13 00:28:03;;;;;;;3.90;2.50;;;;;;;16.63;33.82;101211.09;108168;1288;21992;-58
2023/05/13 00:30:29;;;;;;;5.90;2.00;;;;;;;16.61;33.83;101207.39;108132;1288;21996;-58
2023/05/13 00:32:55;;;;;;;4.20;2.30;;;;;;;16.62;33.82;101207.05;108121;1287;21992;-58
2023/05/13 00:35:21;;;;;;;6.80;2.10;;;;;;;16.61;34.01;101206.17;108283;1287;22012;-57
2023/05/13 00:37:47;;;;;;;4.40;2.20;;;;;;;16.60;34.00;101204.42;107540;1287;1002740;-59
2023/05/13 00:40:20;;;;;;;3.80;2.00;;;;;;;16.59;34.04;101202.33;108257;1287;21984;-58
2023/05/13 00:42:46;;;;;;;3.90;2.20;;;;;;;16.56;34.11;101204.70;108245;1287;21991;-58
2023/05/13 00:45:12;;;;;;;6.80;2.20;;;;;;;16.54;34.06;101203.35;108154;1287;21991;-58
2023/05/13 00:47:41;;;;;;;3.60;2.10;;;;;;;16.52;34.15;101202.33;108221;1287;21983;-60
2023/05/13 00:50:08;;;;;;;6.70;1.90;;;;;;;16.50;34.15;101203.95;108243;1287;21991;-60
2023/05/13 00:52:36;;;;;;;7.50;2.00;;;;;;;16.49;34.16;101203.27;108227;1287;22048;-59
2023/05/13 00:55:02;;;;;;;4.30;2.00;;;;;;;16.47;34.16;101201.19;108117;1288;21986;-59
2023/05/13 00:57:28;;;;;;;4.10;2.20;;;;;;;16.45;34.25;101199.30;107404;1288;1002261;-60
2023/05/13 00:59:54;;;;;;;3.70;1.80;;;;;;;16.43;34.21;101203.59;108109;1288;21996;-59
2023/05/13 01:02:23;;;;;;;6.20;2.20;;;;;;;16.40;34.15;101204.36;108107;1287;21987;-58
2023/05/13 01:05:07;;;;;;;5.20;2.10;;;;;;;16.34;34.33;101199.18;108099;1287;21995;-59
2023/05/13 01:08:19;;;;;;;7.10;2.40;;;;;;;16.30;34.46;101201.23;108086;1288;21989;-59
2023/05/13 01:10:54;;;;;;;4.70;1.90;;;;;;;16.27;34.46;101201.48;108156;1287;21989;-59
2023/05/13 01:13:23;;;;;;;4.40;2.80;;;;;;;16.25;34.49;101203.48;108155;1287;23821;-59
2023/05/13 01:16:00;;;;;;;3.50;1.80;;;;;;;16.24;34.57;101204.55;108166;1287;23631;-59
2023/05/13 01:18:36;;;;;;;4.60;2.00;;;;;;;16.23;34.58;101206.17;108173;1287;22046;-59
2023/05/13 01:21:02;;;;;;;7.50;1.90;;;;;;;16.23;34.61;101206.54;108049;1287;21982;-59
2023/05/13 01:23:28;;;;;;;5.30;2.30;;;;;;;16.23;34.65;101205.48;108121;1286;22024;-58
2023/05/13 01:25:53;;;;;;;5.30;1.90;;;;;;;16.23;34.70;101201.94;108057;1288;22102;-59
2023/05/13 01:28:19;;;;;;;4.70;2.10;;;;;;;16.21;34.76;101206.23;108119;1287;21995;-59
2023/05/13 01:30:46;;;;;;;4.30;2.00;;;;;;;16.19;34.65;101205.73;108172;1280;22005;-60
2023/05/13 01:33:11;;;;;;;5.10;2.00;;;;;;;16.20;34.81;101206.41;108249;1287;21989;-59
2023/05/13 01:35:38;;;;;;;5.50;2.30;;;;;;;16.23;34.84;101207.95;108164;1287;21992;-60
2023/05/13 01:38:03;;;;;;;3.40;2.20;;;;;;;16.26;34.91;101207.00;107940;1287;21987;-59
2023/05/13 01:40:30;;;;;;;11.20;2.40;;;;;;;16.28;34.89;101209.42;107914;1287;21982;-59
2023/05/13 01:42:56;;;;;;;3.70;2.00;;;;;;;16.29;34.86;101206.02;108094;1288;21993;-59
2023/05/13 01:45:22;;;;;;;7.00;2.30;;;;;;;16.30;34.92;101203.20;108084;1288;22113;-59
2023/05/13 01:47:47;;;;;;;3.70;2.30;;;;;;;16.29;34.97;101200.00;108108;1287;21987;-60
2023/05/13 01:50:13;;;;;;;5.40;2.30;;;;;;;16.30;35.06;101203.01;108101;1287;21985;-59
2023/05/13 01:52:40;;;;;;;3.80;2.40;;;;;;;16.31;35.17;101201.05;108143;1287;21990;-59
2023/05/13 01:55:06;;;;;;;3.80;2.00;;;;;;;16.31;35.06;101200.33;108209;1287;21997;-59
2023/05/13 01:57:32;;;;;;;8.20;2.30;;;;;;;16.31;35.20;101203.15;108123;1287;23641;-59
2023/05/13 01:59:57;;;;;;;3.30;1.90;;;;;;;16.32;35.10;101201.38;108116;1288;21992;-59
2023/05/13 02:02:23;;;;;;;8.20;2.60;;;;;;;16.31;35.15;101203.16;108092;1288;22006;-61
2023/05/13 02:04:49;;;;;;;5.60;2.10;;;;;;;16.30;35.04;101207.25;108137;1288;21993;-59
2023/05/13 02:07:15;;;;;;;3.30;2.00;;;;;;;16.30;35.03;101208.50;108086;1287;22029;-60
2023/05/13 02:09:41;;;;;;;5.20;2.10;;;;;;;16.29;35.06;101209.41;108125;1288;21993;-58
2023/05/13 02:12:07;;;;;;;5.60;2.30;;;;;;;16.27;35.07;101206.80;108176;1287;22000;-59
2023/05/13 02:14:33;;;;;;;4.70;2.10;;;;;;;16.25;35.09;101208.07;108171;1288;21995;-59
2023/05/13 02:16:59;;;;;;;7.00;1.90;;;;;;;16.25;35.18;101207.55;108185;1287;21989;-59
2023/05/13 02:19:24;;;;;;;5.10;2.40;;;;;;;16.22;35.20;101204.42;108102;1287;21990;-59
2023/05/13 02:21:50;;;;;;;3.80;1.80;;;;;;;16.20;35.28;101202.17;108196;1287;23125;-61
2023/05/13 02:24:16;;;;;;;3.50;2.10;;;;;;;16.18;35.28;101202.02;107920;1287;21996;-58
2023/05/13 02:26:41;;;;;;;5.20;2.20;;;;;;;16.19;35.27;101206.27;108130;1287;21989;-58
2023/05/13 02:29:07;;;;;;;3.60;2.40;;;;;;;16.17;35.32;101210.55;106635;1280;2002555;-59
2023/05/13 02:31:34;;;;;;;5.50;2.00;;;;;;;16.16;35.32;101207.21;107822;1288;21986;-58
2023/05/13 02:33:59;;;;;;;3.90;1.80;;;;;;;16.16;35.37;101210.05;108124;1288;21989;-58
2023/05/13 02:36:25;;;;;;;4.20;2.00;;;;;;;16.17;35.44;101211.98;108157;1287;21992;-59
2023/05/13 02:38:51;;;;;;;5.10;2.10;;;;;;;16.16;35.49;101215.54;108166;1287;22004;-59
2023/05/13 02:41:16;;;;;;;13.50;3.20;;;;;;;16.15;35.59;101216.80;108125;1287;21958;-59
2023/05/13 02:43:42;;;;;;;8.40;2.60;;;;;;;16.13;35.58;101216.67;108122;1284;21996;-59
2023/05/13 02:46:08;;;;;;;6.60;2.30;;;;;;;16.12;35.57;101217.21;108071;1287;21997;-59
2023/05/13 02:48:34;;;;;;;4.90;2.30;;;;;;;16.12;35.65;101217.58;108057;1287;23636;-58
2023/05/13 02:50:59;;;;;;;4.50;2.50;;;;;;;16.13;35.75;101221.96;106332;1283;2002590;-57
2023/05/13 02:53:25;;;;;;;5.90;2.20;;;;;;;16.14;35.85;101223.54;108127;1284;21992;-59
2023/05/13 02:55:53;;;;;;;13.90;2.70;;;;;;;16.15;36.20;101220.16;108131;1287;22040;-57
2023/05/13 02:58:18;;;;;;;10.80;2.40;;;;;;;16.16;36.06;101219.07;108072;1284;22991;-57
2023/05/13 03:00:44;;;;;;;14.50;2.50;;;;;;;16.21;36.01;101221.10;108081;1280;21991;-60
2023/05/13 03:03:10;;;;;;;9.40;2.50;;;;;;;16.26;36.05;101224.89;108106;1287;21995;-59
2023/05/13 03:05:36;;;;;;;5.40;2.40;;;;;;;16.32;35.98;101224.39;108047;1287;23698;-60
2023/05/13 03:08:01;;;;;;;4.90;2.20;;;;;;;16.37;36.03;101225.31;108069;1287;21992;-59
2023/05/13 03:10:27;;;;;;;8.20;2.50;;;;;;;16.44;36.01;101226.59;108039;1287;22176;-59
2023/05/13 03:12:53;;;;;;;11.90;2.80;;;;;;;16.48;35.89;101231.28;108102;1287;21997;-58
2023/05/13 03:15:19;;;;;;;5.80;3.00;;;;;;;16.50;35.98;101233.90;108030;1287;21989;-58
2023/05/13 03:17:44;;;;;;;10.90;4.10;;;;;;;16.50;36.11;101232.11;108116;1287;21990;-60
2023/05/13 03:20:11;;;;;;;6.60;3.90;;;;;;;16.52;36.11;101230.49;108091;1287;21989;-59
2023/05/13 03:22:39;;;;;;;12.90;3.10;;;;;;;16.56;36.32;101231.27;108115;1285;21995;-57
2023/05/13 03:25:05;;;;;;;11.60;2.90;;;;;;;16.61;36.31;101233.46;108130;1287;21992;-59
2023/05/13 03:27:31;;;;;;;16.20;3.60;;;;;;;16.67;36.34;101231.02;108101;1287;21995;-57
2023/05/13 03:29:57;;;;;;;4.10;2.30;;;;;;;16.72;36.45;101232.32;108089;1287;21996;-57
2023/05/13 03:32:24;;;;;;;7.20;2.70;;;;;;;16.77;36.40;101235.55;108131;1287;22763;-57
2023/05/13 03:34:50;;;;;;;9.20;4.70;;;;;;;16.83;36.49;101238.06;107838;1287;22453;-59
2023/05/13 03:37:16;;;;;;;29.50;4.50;;;;;;;16.89;36.61;101241.13;108061;1287;21997;-59
2023/05/13 03:39:41;;;;;;;12.40;3.20;;;;;;;17.00;36.54;101244.95;108084;1287;21989;-61
2023/05/13 03:42:07;;;;;;;16.60;3.80;;;;;;;17.18;36.52;101245.38;108066;1287;21993;-60
2023/05/13 03:44:33;;;;;;;8.90;3.40;;;;;;;17.36;36.47;101247.05;107818;1288;21990;-58
2023/05/13 03:46:58;;;;;;;7.70;3.00;;;;;;;17.50;36.57;101248.26;108078;1287;21963;-61
2023/05/13 03:49:24;;;;;;;7.50;2.60;;;;;;;17.57;36.49;101251.82;108059;1288;22468;-60
2023/05/13 03:51:50;;;;;;;6.10;2.50;;;;;;;17.61;36.48;101250.81;108080;1288;21992;-59
2023/05/13 03:54:15;;;;;;;5.00;2.70;;;;;;;17.65;36.50;101249.98;108114;1288;21991;-58
2023/05/13 03:56:41;;;;;;;9.50;2.60;;;;;;;17.71;36.55;101250.87;108114;1288;21980;-59
2023/05/13 03:59:06;;;;;;;5.80;2.80;;;;;;;17.76;36.60;101246.82;108145;1288;22006;-60
2023/05/13 04:01:34;;;;;;;5.60;2.70;;;;;;;17.85;36.61;101247.83;108103;1288;21960;-60
2023/05/13 04:04:00;;;;;;;8.50;3.40;;;;;;;17.94;36.56;101250.03;108134;1288;21989;-58
2023/05/13 04:06:25;;;;;;;5.20;2.30;;;;;;;18.03;36.76;101255.83;108102;1288;21992;-60
2023/05/13 04:08:51;;;;;;;3.90;2.10;;;;;;;18.11;36.64;101260.39;108081;1288;21989;-59
2023/05/13 04:11:18;;;;;;;7.10;2.40;;;;;;;18.17;36.46;101263.42;108119;1288;21993;-59
2023/05/13 04:13:44;;;;;;;8.70;2.20;;;;;;;18.23;36.56;101260.75;108114;1288;21996;-60
2023/05/13 04:16:10;;;;;;;7.30;2.30;;;;;;;18.32;36.67;101257.67;108073;1288;21999;-59
2023/05/13 04:18:36;;;;;;;7.60;2.30;;;;;;;18.40;36.60;101258.30;108132;1288;21989;-59
2023/05/13 04:21:06;;;;;;;5.70;2.30;;;;;;;18.49;36.63;101260.52;108086;1288;22043;-58
2023/05/13 04:23:32;;;;;;;7.20;2.90;;;;;;;18.58;36.55;101262.55;108088;1288;22873;-59
2023/05/13 04:25:58;;;;;;;6.50;2.30;;;;;;;18.67;36.55;101265.65;108079;1288;22005;-59
2023/05/13 04:28:23;;;;;;;3.50;2.50;;;;;;;18.75;36.55;101266.26;108120;1288;21986;-60
2023/05/13 04:30:49;;;;;;;6.10;2.30;;;;;;;18.83;36.47;101265.45;108110;1286;22278;-60
2023/05/13 04:33:15;;;;;;;4.10;2.20;;;;;;;18.91;36.47;101269.15;108079;1288;21992;-59
2023/05/13 04:35:41;;;;;;;8.00;3.30;;;;;;;18.97;36.45;101268.61;108085;1288;21989;-60
2023/05/13 04:38:07;;;;;;;6.30;2.30;;;;;;;19.06;36.50;101270.45;108071;1288;21990;-59
2023/05/13 04:40:32;;;;;;;3.10;2.00;;;;;;;19.15;36.49;101271.92;108073;1288;21995;-59
2023/05/13 04:42:58;;;;;;;5.50;2.40;;;;;;;19.25;36.44;101269.64;107359;1288;1002416;-59
2023/05/13 04:45:24;;;;;;;4.10;2.10;;;;;;;19.31;36.34;101266.04;108110;1288;22434;-59
2023/05/13 04:47:50;;;;;;;5.50;2.30;;;;;;;19.39;36.20;101267.53;108088;1288;21993;-60
2023/05/13 04:50:15;;;;;;;6.00;2.90;;;;;;;19.47;36.18;101267.08;108070;1288;21987;-59
2023/05/13 04:52:41;;;;;;;4.30;2.20;;;;;;;19.57;36.23;101272.60;108079;1288;21954;-60
2023/05/13 04:55:10;;;;;;;7.20;2.00;;;;;;;19.71;36.28;101275.67;108085;1288;22024;-59
2023/05/13 04:57:36;;;;;;;5.20;2.80;;;;;;;19.84;36.09;101277.69;108126;1287;22000;-60
2023/05/13 05:00:03;;;;;;;4.10;2.30;;;;;;;19.98;36.13;101277.56;108081;1287;21993;-59
2023/05/13 05:02:29;;;;;;;7.10;2.40;;;;;;;20.15;36.02;101281.34;108101;1288;21994;-60
2023/05/13 05:04:55;;;;;;;5.30;2.70;;;;;;;20.29;36.02;101282.80;108087;1288;22014;-59
2023/05/13 05:07:21;;;;;;;5.00;2.40;;;;;;;20.45;35.96;101283.96;108144;1288;21988;-60
2023/05/13 05:09:48;;;;;;;5.60;2.10;;;;;;;20.63;35.68;101281.64;108086;1288;21993;-60
2023/05/13 05:12:13;;;;;;;3.30;2.00;;;;;;;20.80;35.58;101282.44;108125;1288;21939;-60
2023/05/13 05:14:39;;;;;;;4.80;2.20;;;;;;;20.96;35.65;101282.30;108074;1288;21999;-59
2023/05/13 05:17:05;;;;;;;7.90;2.40;;;;;;;21.14;35.55;101279.95;108093;1288;21995;-59
2023/05/13 05:19:30;;;;;;;4.50;2.20;;;;;;;21.31;35.41;101281.91;108079;1288;21989;-59
2023/05/13 05:21:57;;;;;;;4.80;2.20;;;;;;;21.51;35.51;101281.58;108095;1288;21995;-59
2023/05/13 05:24:22;;;;;;;5.80;2.60;;;;;;;21.74;35.36;101283.66;108093;1288;21991;-59
2023/05/13 05:26:48;;;;;;;6.90;2.30;;;;;;;21.98;35.44;101282.23;107806;1288;21993;-60
2023/05/13 05:29:14;;;;;;;5.40;1.90;;;;;;;22.21;35.37;101285.08;108090;1288;21999;-59
2023/05/13 05:31:39;;;;;;;7.00;1.90;;;;;;;22.46;35.07;101289.82;108109;1288;21992;-59
2023/05/13 05:34:05;;;;;;;5.30;1.90;;;;;;;22.72;34.89;101286.83;108069;1288;22014;-60
2023/05/13 05:36:31;;;;;;;4.80;2.10;;;;;;;22.93;34.68;101286.88;108122;1288;21998;-59
2023/05/13 05:38:56;;;;;;;4.60;2.00;;;;;;;23.11;34.50;101282.91;108141;1288;21994;-59
2023/05/13 05:41:22;;;;;;;6.20;2.80;;;;;;;23.28;34.20;101280.66;108128;1288;21991;-59
2023/05/13 05:43:48;;;;;;;3.40;1.90;;;;;;;23.45;34.19;101280.31;108155;1288;21977;-60
2023/05/13 05:46:13;;;;;;;4.40;2.30;;;;;;;23.66;34.13;101282.46;108093;1288;22005;-59
2023/05/13 05:48:39;;;;;;;6.00;1.90;;;;;;;23.73;34.34;101277.25;108126;1288;22021;-59
2023/05/13 05:51:05;;;;;;;6.70;2.40;;;;;;;24.06;34.24;101278.19;108119;1288;21994;-59
2023/05/13 05:53:31;;;;;;;6.80;2.50;;;;;;;24.39;33.99;101275.84;108098;1288;22004;-59
2023/05/13 05:55:56;;;;;;;5.40;2.30;;;;;;;24.62;33.64;101273.84;108115;1288;21989;-61
2023/05/13 05:58:22;;;;;;;3.90;2.00;;;;;;;24.83;33.69;101274.45;107868;1288;21999;-60
2023/05/13 06:00:48;;;;;;;4.40;2.40;;;;;;;25.02;33.44;101275.67;108124;1284;22102;-59
2023/05/13 06:03:14;;;;;;;6.40;2.30;;;;;;;25.22;33.25;101270.90;108134;1288;21993;-60
2023/05/13 06:05:40;;;;;;;5.30;1.90;;;;;;;25.41;32.98;101271.05;108119;1288;22000;-61
2023/05/13 06:08:06;;;;;;;4.80;1.90;;;;;;;25.56;32.77;101269.63;108096;1288;22454;-60
2023/05/13 06:10:32;;;;;;;3.50;2.00;;;;;;;25.68;32.69;101272.63;108111;1288;21996;-60
2023/05/13 06:12:57;;;;;;;4.10;2.50;;;;;;;25.76;32.32;101275.20;108144;1288;21991;-60
2023/05/13 06:15:23;;;;;;;8.60;1.70;;;;;;;25.84;32.42;101274.36;108142;1288;22105;-60
2023/05/13 06:17:48;;;;;;;3.40;2.10;;;;;;;25.95;32.28;101274.42;108125;1288;21995;-60
2023/05/13 06:20:14;;;;;;;3.30;1.80;;;;;;;26.05;32.23;101274.67;108122;1288;21989;-60
2023/05/13 06:22:40;;;;;;;3.90;2.10;;;;;;;26.14;31.94;101271.06;108112;1288;21989;-62
2023/05/13 06:25:06;;;;;;;2.80;1.90;;;;;;;26.22;32.12;101269.14;108108;1288;21990;-61
2023/05/13 06:27:32;;;;;;;4.50;2.10;;;;;;;26.35;32.16;101269.34;108169;1288;21996;-61
2023/05/13 06:29:59;;;;;;;5.60;2.30;;;;;;;26.54;31.98;101265.78;108151;1288;21991;-60
2023/05/13 06:32:25;;;;;;;4.70;2.10;;;;;;;26.79;31.88;101270.63;108122;1288;22025;-61
2023/05/13 06:34:51;;;;;;;5.90;2.30;;;;;;;27.02;31.58;101269.85;108134;1288;22030;-61
2023/05/13 06:37:17;;;;;;;4.80;1.90;;;;;;;27.29;31.57;101265.89;108111;1288;21992;-60
2023/05/13 06:39:42;;;;;;;7.70;2.10;;;;;;;27.59;31.48;101262.16;108123;1288;21999;-60
2023/05/13 06:42:08;;;;;;;3.00;2.00;;;;;;;27.88;31.39;101258.00;108105;1288;21984;-60
2023/05/13 06:44:34;;;;;;;6.40;2.10;;;;;;;28.14;31.07;101257.24;108134;1288;21995;-59
2023/05/13 06:47:01;;;;;;;4.20;2.60;;;;;;;28.31;30.79;101254.74;108135;1288;21966;-60
2023/05/13 06:49:27;;;;;;;5.80;2.20;;;;;;;28.45;30.83;101254.95;108131;1288;22081;-59
2023/05/13 06:51:53;;;;;;;5.00;1.90;;;;;;;28.65;30.79;101256.00;108111;1288;22029;-61
2023/05/13 06:54:18;;;;;;;3.50;2.20;;;;;;;28.89;30.51;101258.45;108109;1288;22003;-58
2023/05/13 06:56:44;;;;;;;4.90;1.90;;;;;;;29.13;30.25;101258.92;108111;1288;22001;-59
2023/05/13 06:59:10;;;;;;;4.20;2.00;;;;;;;29.35;29.91;101261.98;108104;1288;21993;-58
2023/05/13 07:01:36;;;;;;;5.20;2.00;;;;;;;29.51;29.93;101261.62;108099;1288;21985;-60
2023/05/13 07:04:02;;;;;;;3.80;2.10;;;;;;;29.68;29.81;101259.56;108163;1288;22028;-59
2023/05/13 07:06:28;;;;;;;6.50;2.10;;;;;;;29.86;29.85;101261.02;108113;1288;21964;-61
2023/05/13 07:08:55;;;;;;;4.50;2.00;;;;;;;30.01;29.61;101264.23;108078;1288;21991;-58
2023/05/13 07:11:21;;;;;;;3.60;2.00;;;;;;;30.15;29.57;101261.45;108153;1288;22027;-59
2023/05/13 07:13:47;;;;;;;4.50;2.30;;;;;;;30.35;29.35;101258.77;108162;1288;24336;-59
2023/05/13 07:16:13;;;;;;;6.50;2.20;;;;;;;30.50;28.90;101259.70;107841;1288;22457;-59
2023/05/13 07:18:39;;;;;;;3.60;2.00;;;;;;;30.70;29.05;101255.89;108157;1288;21989;-60
2023/05/13 07:21:05;;;;;;;5.50;2.20;;;;;;;30.91;28.95;101254.88;108109;1288;22026;-59
2023/05/13 07:23:32;;;;;;;4.40;2.20;;;;;;;31.13;28.75;101253.36;108128;1288;22460;-59
2023/05/13 07:25:58;;;;;;;4.10;2.00;;;;;;;31.35;28.56;101255.11;108196;1288;21994;-60
2023/05/13 07:28:23;;;;;;;7.60;2.50;;;;;;;31.56;28.50;101254.90;108107;1288;22082;-59
2023/05/13 07:30:49;;;;;;;4.50;2.10;;;;;;;31.77;28.25;101253.48;108126;1288;21991;-58
2023/05/13 07:33:15;;;;;;;6.10;1.90;;;;;;;31.92;28.02;101252.52;108131;1288;21993;-59
2023/05/13 07:35:40;;;;;;;5.00;2.30;;;;;;;32.07;27.98;101255.15;108106;1284;21999;-59
2023/05/13 07:38:07;;;;;;;5.60;2.40;;;;;;;32.27;27.88;101247.77;108131;1288;22451;-59
2023/05/13 07:40:33;;;;;;;4.10;2.10;;;;;;;32.49;27.68;101245.05;108162;1288;21991;-59
2023/05/13 07:42:59;;;;;;;4.60;2.10;;;;;;;32.65;27.34;101253.19;108149;1288;21986;-59
2023/05/13 07:45:25;;;;;;;9.10;2.30;;;;;;;32.78;27.28;101253.27;108130;1288;21989;-60
2023/05/13 07:47:51;;;;;;;7.60;1.80;;;;;;;32.91;26.96;101252.27;108111;1288;21991;-60
2023/05/13 07:50:16;;;;;;;4.20;2.00;;;;;;;33.08;26.05;101256.19;108098;1288;22084;-59
2023/05/13 07:52:42;;;;;;;5.70;2.20;;;;;;;33.09;25.92;101254.61;108100;1288;21989;-59
2023/05/13 07:55:09;;;;;;;5.60;2.60;;;;;;;33.10;25.70;101255.41;108132;1288;21990;-60
2023/05/13 07:57:35;;;;;;;5.20;1.80;;;;;;;33.11;25.34;101256.99;108183;1288;22052;-61
2023/05/13 08:00:01;;;;;;;4.00;1.90;;;;;;;33.19;25.82;101253.88;108122;1288;23612;-60
2023/05/13 08:02:27;;;;;;;3.70;1.90;;;;;;;33.32;24.91;101251.38;108182;1288;21995;-60
2023/05/13 08:04:52;;;;;;;3.80;2.10;;;;;;;33.43;25.15;101249.39;108156;1288;21990;-59
2023/05/13 08:07:18;;;;;;;3.50;2.00;;;;;;;33.62;25.60;101250.88;107887;1288;21998;-59
2023/05/13 08:09:43;;;;;;;2.80;1.70;;;;;;;33.86;25.22;101250.42;108128;1283;22247;-60
2023/05/13 08:12:09;;;;;;;3.00;1.80;;;;;;;34.05;25.30;101249.48;107803;1288;21990;-59
2023/05/13 08:14:35;;;;;;;5.80;1.80;;;;;;;34.21;25.14;101245.56;108150;1288;21990;-59
2023/05/13 08:17:03;;;;;;;3.40;1.70;;;;;;;34.34;24.98;101242.59;108149;1288;21998;-60
2023/05/13 08:19:30;;;;;;;2.90;1.60;;;;;;;34.45;24.86;101240.65;108161;1288;21996;-59
2023/05/13 08:21:55;;;;;;;4.60;1.70;;;;;;;34.50;24.32;101241.86;108121;1288;21992;-60
2023/05/13 08:24:21;;;;;;;3.10;1.50;;;;;;;34.39;23.66;101242.24;108121;1288;21999;-59
2023/05/13 08:26:47;;;;;;;3.30;1.70;;;;;;;34.17;23.13;101242.04;108102;1289;23733;-59
2023/05/13 08:29:14;;;;;;;4.90;2.00;;;;;;;34.03;23.97;101247.33;108119;1288;21994;-61
2023/05/13 08:31:41;;;;;;;7.80;1.70;;;;;;;34.10;24.13;101247.38;108102;1288;22047;-59
2023/05/13 08:34:06;;;;;;;4.60;1.60;;;;;;;34.34;24.29;101244.03;108139;1289;21990;-59
2023/05/13 08:36:32;;;;;;;3.70;1.50;;;;;;;34.74;24.20;101239.86;108137;1288;21987;-59
2023/05/13 08:38:58;;;;;;;3.00;1.50;;;;;;;35.10;24.16;101242.05;107973;1288;21985;-59
2023/05/13 08:41:24;;;;;;;3.20;1.80;;;;;;;35.37;23.87;101238.14;108143;1288;21984;-59
2023/05/13 08:43:50;;;;;;;2.40;1.50;;;;;;;35.55;23.50;101235.77;108151;1288;21983;-60
2023/05/13 08:46:16;;;;;;;3.30;1.80;;;;;;;35.72;23.31;101240.38;107930;1287;22067;-60
2023/05/13 08:48:41;;;;;;;8.10;2.30;;;;;;;35.89;23.13;101237.16;108115;1288;21997;-59
2023/05/13 08:51:08;;;;;;;2.70;1.80;;;;;;;36.01;23.24;101231.89;107895;1288;22026;-60
2023/05/13 08:53:34;;;;;;;4.30;1.90;;;;;;;36.16;23.22;101232.93;108059;1288;149176;-60
2023/05/13 08:56:00;;;;;;;5.40;1.90;;;;;;;36.34;22.86;101228.30;108135;1288;21987;-60
2023/05/13 08:58:25;;;;;;;4.30;1.70;;;;;;;36.54;23.00;101226.30;108119;1289;21997;-60
2023/05/13 09:00:52;;;;;;;4.50;1.60;;;;;;;36.73;22.75;101227.69;108096;1289;21990;-60
2023/05/13 09:03:19;;;;;;;6.00;1.70;;;;;;;36.81;21.68;101230.54;107888;1289;22057;-60
2023/05/13 09:05:45;;;;;;;2.90;1.50;;;;;;;36.69;20.26;101226.17;108162;1288;21987;-62
2023/05/13 09:08:11;;;;;;;3.70;1.80;;;;;;;36.49;20.78;101220.59;108153;1288;22024;-60
2023/05/13 09:10:37;;;;;;;2.30;1.60;;;;;;;36.37;20.51;101217.41;108079;1288;21963;-59
2023/05/13 09:13:03;;;;;;;3.70;1.90;;;;;;;36.35;21.26;101217.89;108111;1289;21996;-59
2023/05/13 09:15:29;;;;;;;2.50;1.50;;;;;;;36.62;21.50;101218.05;108076;1289;22459;-59
2023/05/13 09:18:00;;;;;;;2.80;1.50;;;;;;;36.92;21.36;101218.50;108060;1288;21986;-61
2023/05/13 09:20:26;;;;;;;3.70;1.60;;;;;;;37.10;20.77;101216.88;107901;1288;24075;-61
2023/05/13 09:23:11;;;;;;;3.60;1.30;;;;;;;37.13;20.60;101211.60;107940;1288;21994;-61
2023/05/13 09:25:37;;;;;;;2.80;1.60;;;;;;;37.08;19.28;101213.56;108115;1289;21989;-60
2023/05/13 09:28:04;;;;;;;3.50;1.20;;;;;;;36.84;20.20;101212.36;108059;1289;21998;-60
2023/05/13 09:30:40;;;;;;;3.70;1.40;;;;;;;36.86;20.64;101209.23;108082;1288;21989;-59
2023/05/13 09:33:10;;;;;;;3.50;1.40;;;;;;;37.07;20.99;101206.77;108132;1289;21990;-60
2023/05/13 09:35:43;;;;;;;6.00;1.60;;;;;;;37.34;20.35;101203.48;108141;1289;21992;-60
2023/05/13 09:38:16;;;;;;;4.20;1.80;;;;;;;37.61;20.79;101198.30;108139;1284;21991;-59
2023/05/13 09:40:55;;;;;;;3.60;1.70;;;;;;;37.92;20.89;101199.30;107854;1288;21986;-59
2023/05/13 09:43:23;;;;;;;2.80;1.60;;;;;;;38.23;20.56;101192.77;108154;1288;21985;-61
2023/05/13 09:45:56;;;;;;;3.60;1.50;;;;;;;38.45;20.80;101194.46;108110;1288;21987;-60
2023/05/13 09:48:26;;;;;;;2.50;1.80;;;;;;;38.60;20.50;101193.84;108140;1288;21996;-59
2023/05/13 09:50:53;;;;;;;4.80;1.50;;;;;;;38.74;20.54;101194.84;108098;1288;21987;-59
2023/05/13 09:53:20;;;;;;;2.60;1.60;;;;;;;38.87;20.19;101192.66;108121;1289;21997;-61
2023/05/13 09:55:49;;;;;;;3.20;1.90;;;;;;;38.81;18.74;101192.55;108111;1288;22965;-61
2023/05/13 09:58:17;;;;;;;2.80;1.50;;;;;;;38.33;19.20;101193.73;108108;1288;21989;-60
2023/05/13 10:00:43;;;;;;;6.60;1.80;;;;;;;38.13;19.89;101191.73;108151;1288;21984;-60
2023/05/13 10:03:09;;;;;;;4.50;1.60;;;;;;;38.13;20.35;101187.17;108095;1289;21989;-60
2023/05/13 10:05:35;;;;;;;3.10;1.70;;;;;;;38.13;20.14;101191.79;108084;1288;22492;-61
2023/05/13 10:08:01;;;;;;;4.90;2.20;;;;;;;38.06;20.25;101189.28;108090;1288;22023;-61
2023/05/13 10:10:32;;;;;;;6.20;2.40;;;;;;;37.90;19.45;101191.69;108160;1289;21986;-59
2023/05/13 10:12:58;;;;;;;;;;;;;;;37.43;19.43;101195.23;108127;1288;21972;-59
2023/05/13 10:15:24;;;;;;;8.20;1.70;;;;;;;37.09;19.92;101192.95;108096;1288;22479;-61
2023/05/13 10:17:50;;;;;;;3.30;2.30;;;;;;;36.88;20.13;101187.05;107835;1288;21997;-62
2023/05/13 10:20:16;;;;;;;6.90;2.20;;;;;;;36.65;19.91;101181.71;107889;1288;23833;-59
2023/05/13 10:22:42;;;;;;;6.00;2.20;;;;;;;36.47;20.50;101182.62;107929;1288;22456;-59
2023/05/13 10:25:08;;;;;;;5.40;2.00;;;;;;;36.36;20.62;101182.16;107914;1288;24038;-59
2023/05/13 10:27:34;;;;;;;6.90;2.40;;;;;;;36.27;20.61;101185.23;108164;1288;21986;-61
2023/05/13 10:30:00;;;;;;;5.10;2.10;;;;;;;36.15;20.53;101186.08;108165;1287;22010;-60
2023/05/13 10:32:28;;;;;;;8.00;1.90;;;;;;;36.03;20.63;101185.63;108152;1287;21989;-59
2023/05/13 10:35:07;;;;;;;16.40;2.10;;;;;;;35.90;20.69;101183.29;108143;1288;21989;-59
2023/05/13 10:37:58;;;;;;;10.80;2.60;;;;;;;35.82;20.71;101184.55;108174;1287;24317;-60
2023/05/13 10:40:42;;;;;;;7.90;2.50;;;;;;;35.82;20.87;101181.98;108078;1283;22439;-58
2023/05/13 10:43:19;;;;;;;7.60;2.30;;;;;;;35.92;20.76;101177.98;108071;1288;22686;-59
2023/05/13 10:45:48;;;;;;;8.60;2.00;;;;;;;36.17;20.83;101178.61;108106;1288;22028;-58
2023/05/13 10:48:16;;;;;;;4.40;2.30;;;;;;;36.47;20.76;101175.67;108143;1287;21983;-59
2023/05/13 10:50:54;;;;;;;8.50;3.10;;;;;;;36.76;20.07;101169.80;108169;1288;21997;-58
2023/05/13 10:53:30;;;;;;;6.30;2.30;;;;;;;36.68;19.61;101167.95;108085;1287;21992;-60
2023/05/13 10:55:58;;;;;;;6.80;2.40;;;;;;;36.53;20.55;101169.77;108104;1287;21986;-61
2023/05/13 10:58:31;;;;;;;6.00;2.40;;;;;;;36.56;20.74;101169.80;108199;1287;23499;-61
2023/05/13 11:01:29;;;;;;;5.90;2.60;;;;;;;36.63;20.51;101168.80;108127;1287;21994;-62
2023/05/13 11:03:56;;;;;;;5.60;1.60;;;;;;;36.81;20.33;101168.89;108109;1287;21991;-62
2023/05/13 11:06:25;;;;;;;8.60;2.30;;;;;;;36.97;19.84;101171.48;107842;1287;21985;-60
2023/05/13 11:08:52;;;;;;;5.00;1.90;;;;;;;37.15;20.19;101170.41;108036;1287;21985;-60
2023/05/13 11:11:23;;;;;;;9.70;2.90;;;;;;;37.50;20.66;101172.30;108140;1286;24318;-60
2023/05/13 11:13:50;;;;;;;4.30;2.10;;;;;;;37.96;20.64;101171.02;108076;1287;21984;-60
2023/05/13 11:16:16;;;;;;;5.80;2.50;;;;;;;38.29;20.02;101170.61;108156;1287;24400;-60